Accueil
METAR-TAF:

METAR-TAF

Aéroports :

Reno, Nevada, États-Unis

latitude: 39-40-05N, longitude: 119-52-35W, altitude: 1539 m

Observation

Le bulletin a été fait il y a 16 minutes, à 22:55 UTC
Vent 6 kt de est/nord-est
Température 2°C
Humidité 80%
Pression 1006 hPa
Visibilité: 16.1 km
Quelques nuages à une hauteur de 1500 ft
Nuages fragmentés à une hauteur de 4800 ft
Ciel couvert à une hauteur de 5500 ft

METAR: KRTS 202255Z AUTO 07006KT 10SM FEW015 BKN048 OVC055 02/M01 A2972 RMK AO2

Heure: 15:11 (23:11 UTC)


TAF: absent

Observations et prévisions météorologiques de plus de 4000 aéroports (messages METAR et TAF).

Les stations disponibles sont représentées par des disques jaunes et rouges sur la carte.

Passer la souris dessus pour voir le nom de la station.

Cliquer dessus pour voir les observations et prévisions météorologiques.

Pour changer de carte: cliquez sur les boutons verts avec une croix noire pour zoomer, sur le bouton vert avec un tiret pour effectuer un zoom arrière, ou sur les flèches vertes pour les cartes adjacentes.


METAR-TAF: